sensor_id;sensor_type;location;lat;lon;timestamp;temperature;humidity
21612;DHT22;47005;52.292;13.452;2023-03-23T00:02:29;13.40;93.90
21612;DHT22;47005;52.292;13.452;2023-03-23T00:04:58;13.40;93.80
21612;DHT22;47005;52.292;13.452;2023-03-23T00:07:26;13.40;93.90
21612;DHT22;47005;52.292;13.452;2023-03-23T00:09:53;13.40;94.00
21612;DHT22;47005;52.292;13.452;2023-03-23T00:12:24;13.30;93.90
21612;DHT22;47005;52.292;13.452;2023-03-23T00:14:59;13.30;94.00
21612;DHT22;47005;52.292;13.452;2023-03-23T00:17:28;13.30;94.30
21612;DHT22;47005;52.292;13.452;2023-03-23T00:19:54;13.20;94.00
21612;DHT22;47005;52.292;13.452;2023-03-23T00:22:20;13.20;94.00
21612;DHT22;47005;52.292;13.452;2023-03-23T00:24:47;13.20;94.00
21612;DHT22;47005;52.292;13.452;2023-03-23T00:27:16;13.20;93.90
21612;DHT22;47005;52.292;13.452;2023-03-23T00:29:42;13.10;94.00
21612;DHT22;47005;52.292;13.452;2023-03-23T00:32:09;13.10;94.10
21612;DHT22;47005;52.292;13.452;2023-03-23T00:34:39;13.10;94.10
21612;DHT22;47005;52.292;13.452;2023-03-23T00:37:07;13.10;94.20
21612;DHT22;47005;52.292;13.452;2023-03-23T00:39:33;13.00;94.20
21612;DHT22;47005;52.292;13.452;2023-03-23T00:41:59;13.00;94.20
21612;DHT22;47005;52.292;13.452;2023-03-23T00:44:28;13.00;94.20
21612;DHT22;47005;52.292;13.452;2023-03-23T00:46:54;13.00;94.20
21612;DHT22;47005;52.292;13.452;2023-03-23T00:49:22;12.90;94.20
21612;DHT22;47005;52.292;13.452;2023-03-23T00:51:58;12.90;94.20
21612;DHT22;47005;52.292;13.452;2023-03-23T00:54:24;12.90;94.20
21612;DHT22;47005;52.292;13.452;2023-03-23T00:56:51;12.90;94.20
21612;DHT22;47005;52.292;13.452;2023-03-23T00:59:17;12.80;94.50
21612;DHT22;47005;52.292;13.452;2023-03-23T01:01:43;12.80;94.50
21612;DHT22;47005;52.292;13.452;2023-03-23T01:04:09;12.80;94.30
21612;DHT22;47005;52.292;13.452;2023-03-23T01:06:38;12.70;94.30
21612;DHT22;47005;52.292;13.452;2023-03-23T01:09:06;12.70;94.30
21612;DHT22;47005;52.292;13.452;2023-03-23T01:11:32;12.70;94.50
21612;DHT22;47005;52.292;13.452;2023-03-23T01:13:59;12.70;94.40
21612;DHT22;47005;52.292;13.452;2023-03-23T01:16:25;12.60;94.40
21612;DHT22;47005;52.292;13.452;2023-03-23T01:18:51;12.60;94.50
21612;DHT22;47005;52.292;13.452;2023-03-23T01:21:18;12.60;94.50
21612;DHT22;47005;52.292;13.452;2023-03-23T01:23:45;12.50;94.70
21612;DHT22;47005;52.292;13.452;2023-03-23T01:26:25;12.60;94.70
21612;DHT22;47005;52.292;13.452;2023-03-23T01:28:51;12.50;94.60
21612;DHT22;47005;52.292;13.452;2023-03-23T01:31:20;12.50;94.60
21612;DHT22;47005;52.292;13.452;2023-03-23T01:33:46;12.50;94.70
21612;DHT22;47005;52.292;13.452;2023-03-23T01:36:18;12.50;94.80
21612;DHT22;47005;52.292;13.452;2023-03-23T01:38:46;12.40;94.60
21612;DHT22;47005;52.292;13.452;2023-03-23T01:41:13;12.40;94.70
21612;DHT22;47005;52.292;13.452;2023-03-23T01:44:03;12.40;94.60
21612;DHT22;47005;52.292;13.452;2023-03-23T01:46:33;12.30;94.70
21612;DHT22;47005;52.292;13.452;2023-03-23T01:49:16;12.30;94.70
21612;DHT22;47005;52.292;13.452;2023-03-23T01:51:55;12.30;94.80
21612;DHT22;47005;52.292;13.452;2023-03-23T01:54:22;12.30;94.80
21612;DHT22;47005;52.292;13.452;2023-03-23T01:57:01;12.20;94.90
21612;DHT22;47005;52.292;13.452;2023-03-23T01:59:28;12.20;94.90
21612;DHT22;47005;52.292;13.452;2023-03-23T02:01:55;12.20;94.90
21612;DHT22;47005;52.292;13.452;2023-03-23T02:04:23;12.10;95.00
21612;DHT22;47005;52.292;13.452;2023-03-23T02:06:51;12.20;94.80
21612;DHT22;47005;52.292;13.452;2023-03-23T02:09:17;12.10;94.90
21612;DHT22;47005;52.292;13.452;2023-03-23T02:11:44;12.10;95.10
21612;DHT22;47005;52.292;13.452;2023-03-23T02:14:10;12.10;95.00
21612;DHT22;47005;52.292;13.452;2023-03-23T02:16:51;12.10;95.20
21612;DHT22;47005;52.292;13.452;2023-03-23T02:38:17;12.00;95.40
21612;DHT22;47005;52.292;13.452;2023-03-23T02:40:49;12.10;95.40
21612;DHT22;47005;52.292;13.452;2023-03-23T02:43:20;12.10;95.50
21612;DHT22;47005;52.292;13.452;2023-03-23T02:45:47;12.10;95.40
21612;DHT22;47005;52.292;13.452;2023-03-23T02:48:16;12.10;95.40
21612;DHT22;47005;52.292;13.452;2023-03-23T02:50:47;12.20;95.50
21612;DHT22;47005;52.292;13.452;2023-03-23T02:53:17;12.20;95.50
21612;DHT22;47005;52.292;13.452;2023-03-23T02:55:44;12.20;95.40
21612;DHT22;47005;52.292;13.452;2023-03-23T02:58:11;12.20;95.40
21612;DHT22;47005;52.292;13.452;2023-03-23T03:00:38;12.30;95.50
21612;DHT22;47005;52.292;13.452;2023-03-23T03:03:05;12.30;95.50
21612;DHT22;47005;52.292;13.452;2023-03-23T03:08:50;12.30;95.80
21612;DHT22;47005;52.292;13.452;2023-03-23T03:11:19;12.40;96.30
21612;DHT22;47005;52.292;13.452;2023-03-23T03:14:04;12.40;96.40
21612;DHT22;47005;52.292;13.452;2023-03-23T03:16:33;12.40;96.10
21612;DHT22;47005;52.292;13.452;2023-03-23T03:19:23;12.40;96.40
21612;DHT22;47005;52.292;13.452;2023-03-23T03:21:52;12.40;96.10
21612;DHT22;47005;52.292;13.452;2023-03-23T03:24:20;12.50;96.50
21612;DHT22;47005;52.292;13.452;2023-03-23T03:26:49;12.50;96.60
21612;DHT22;47005;52.292;13.452;2023-03-23T03:29:18;12.50;96.70
21612;DHT22;47005;52.292;13.452;2023-03-23T03:31:47;12.50;96.60
21612;DHT22;47005;52.292;13.452;2023-03-23T03:34:14;12.50;96.50
21612;DHT22;47005;52.292;13.452;2023-03-23T03:36:46;12.50;96.40
21612;DHT22;47005;52.292;13.452;2023-03-23T03:39:14;12.50;96.30
21612;DHT22;47005;52.292;13.452;2023-03-23T03:41:43;12.50;96.20
21612;DHT22;47005;52.292;13.452;2023-03-23T03:44:09;12.50;96.30
21612;DHT22;47005;52.292;13.452;2023-03-23T03:46:35;12.50;96.60
21612;DHT22;47005;52.292;13.452;2023-03-23T03:49:04;12.50;96.60
21612;DHT22;47005;52.292;13.452;2023-03-23T03:51:31;12.60;96.60
21612;DHT22;47005;52.292;13.452;2023-03-23T03:53:57;12.60;96.50
21612;DHT22;47005;52.292;13.452;2023-03-23T03:56:23;12.60;96.60
21612;DHT22;47005;52.292;13.452;2023-03-23T03:58:50;12.60;96.60
21612;DHT22;47005;52.292;13.452;2023-03-23T04:01:17;12.60;96.70
21612;DHT22;47005;52.292;13.452;2023-03-23T04:03:43;12.60;96.60
21612;DHT22;47005;52.292;13.452;2023-03-23T04:06:10;12.60;96.70
21612;DHT22;47005;52.292;13.452;2023-03-23T04:08:38;12.60;96.80
21612;DHT22;47005;52.292;13.452;2023-03-23T04:11:04;12.60;96.50
21612;DHT22;47005;52.292;13.452;2023-03-23T04:13:31;12.60;96.90
21612;DHT22;47005;52.292;13.452;2023-03-23T04:15:56;12.60;96.60
21612;DHT22;47005;52.292;13.452;2023-03-23T04:18:22;12.60;96.50
21612;DHT22;47005;52.292;13.452;2023-03-23T04:20:49;12.60;96.60
21612;DHT22;47005;52.292;13.452;2023-03-23T04:23:17;12.60;96.60
21612;DHT22;47005;52.292;13.452;2023-03-23T04:25:49;12.70;96.60
21612;DHT22;47005;52.292;13.452;2023-03-23T04:28:16;12.60;96.50
21612;DHT22;47005;52.292;13.452;2023-03-23T04:30:49;12.60;96.80
21612;DHT22;47005;52.292;13.452;2023-03-23T04:33:18;12.70;96.50
21612;DHT22;47005;52.292;13.452;2023-03-23T04:35:45;12.70;96.80
21612;DHT22;47005;52.292;13.452;2023-03-23T04:38:14;12.60;96.70
21612;DHT22;47005;52.292;13.452;2023-03-23T04:40:41;12.60;96.70
21612;DHT22;47005;52.292;13.452;2023-03-23T04:43:07;12.60;97.00
21612;DHT22;47005;52.292;13.452;2023-03-23T04:45:33;12.60;97.10
21612;DHT22;47005;52.292;13.452;2023-03-23T04:48:00;12.60;97.20
21612;DHT22;47005;52.292;13.452;2023-03-23T04:50:30;12.60;97.30
21612;DHT22;47005;52.292;13.452;2023-03-23T04:52:58;12.60;97.70
21612;DHT22;47005;52.292;13.452;2023-03-23T04:55:25;12.60;97.80
21612;DHT22;47005;52.292;13.452;2023-03-23T04:57:51;12.60;97.60
21612;DHT22;47005;52.292;13.452;2023-03-23T05:00:18;12.60;97.30
21612;DHT22;47005;52.292;13.452;2023-03-23T05:02:46;12.60;97.20
21612;DHT22;47005;52.292;13.452;2023-03-23T05:05:14;12.60;97.60
21612;DHT22;47005;52.292;13.452;2023-03-23T05:07:40;12.60;97.70
21612;DHT22;47005;52.292;13.452;2023-03-23T05:10:08;12.60;97.40
21612;DHT22;47005;52.292;13.452;2023-03-23T05:12:34;12.60;97.50
21612;DHT22;47005;52.292;13.452;2023-03-23T05:15:00;12.60;97.40
21612;DHT22;47005;52.292;13.452;2023-03-23T05:17:26;12.60;97.40
21612;DHT22;47005;52.292;13.452;2023-03-23T05:19:52;12.60;97.40
21612;DHT22;47005;52.292;13.452;2023-03-23T05:22:19;12.60;97.20
21612;DHT22;47005;52.292;13.452;2023-03-23T05:24:47;12.60;97.20
21612;DHT22;47005;52.292;13.452;2023-03-23T05:27:13;12.60;97.20
21612;DHT22;47005;52.292;13.452;2023-03-23T05:29:40;12.60;97.10
21612;DHT22;47005;52.292;13.452;2023-03-23T05:32:07;12.60;97.00
21612;DHT22;47005;52.292;13.452;2023-03-23T05:34:33;12.60;97.00
21612;DHT22;47005;52.292;13.452;2023-03-23T05:37:01;12.70;97.00
21612;DHT22;47005;52.292;13.452;2023-03-23T05:39:28;12.70;97.10
21612;DHT22;47005;52.292;13.452;2023-03-23T05:41:54;12.70;97.30
21612;DHT22;47005;52.292;13.452;2023-03-23T05:44:20;12.70;97.50
21612;DHT22;47005;52.292;13.452;2023-03-23T05:46:46;12.70;97.30
21612;DHT22;47005;52.292;13.452;2023-03-23T05:49:12;12.70;97.20
21612;DHT22;47005;52.292;13.452;2023-03-23T05:51:39;12.70;97.20
21612;DHT22;47005;52.292;13.452;2023-03-23T05:54:05;12.70;97.20
21612;DHT22;47005;52.292;13.452;2023-03-23T05:56:31;12.70;97.30
21612;DHT22;47005;52.292;13.452;2023-03-23T05:58:57;12.70;97.40
21612;DHT22;47005;52.292;13.452;2023-03-23T06:01:25;12.70;97.20
21612;DHT22;47005;52.292;13.452;2023-03-23T06:03:50;12.70;97.30
21612;DHT22;47005;52.292;13.452;2023-03-23T06:06:20;12.70;97.20
21612;DHT22;47005;52.292;13.452;2023-03-23T06:08:46;12.70;97.30
21612;DHT22;47005;52.292;13.452;2023-03-23T06:11:11;12.70;97.40
21612;DHT22;47005;52.292;13.452;2023-03-23T06:13:38;12.70;97.50
21612;DHT22;47005;52.292;13.452;2023-03-23T06:16:04;12.70;97.50
21612;DHT22;47005;52.292;13.452;2023-03-23T06:18:30;12.70;97.70
21612;DHT22;47005;52.292;13.452;2023-03-23T06:20:59;12.70;98.00
21612;DHT22;47005;52.292;13.452;2023-03-23T06:23:26;12.70;97.90
21612;DHT22;47005;52.292;13.452;2023-03-23T06:25:58;12.70;99.10
21612;DHT22;47005;52.292;13.452;2023-03-23T06:28:24;12.70;99.00
21612;DHT22;47005;52.292;13.452;2023-03-23T06:30:50;12.70;99.30
21612;DHT22;47005;52.292;13.452;2023-03-23T06:33:16;12.70;99.00
21612;DHT22;47005;52.292;13.452;2023-03-23T06:35:42;12.60;98.90
21612;DHT22;47005;52.292;13.452;2023-03-23T06:38:09;12.60;99.30
21612;DHT22;47005;52.292;13.452;2023-03-23T06:40:35;12.60;99.90
21612;DHT22;47005;52.292;13.452;2023-03-23T06:43:02;12.60;99.90
21612;DHT22;47005;52.292;13.452;2023-03-23T06:45:28;12.60;99.90
21612;DHT22;47005;52.292;13.452;2023-03-23T06:47:54;12.50;99.90
21612;DHT22;47005;52.292;13.452;2023-03-23T06:50:19;12.50;99.90
21612;DHT22;47005;52.292;13.452;2023-03-23T06:52:46;12.50;99.90
21612;DHT22;47005;52.292;13.452;2023-03-23T06:55:13;12.50;99.90
21612;DHT22;47005;52.292;13.452;2023-03-23T06:57:39;12.50;99.90
21612;DHT22;47005;52.292;13.452;2023-03-23T07:00:06;12.40;99.90
21612;DHT22;47005;52.292;13.452;2023-03-23T07:02:33;12.40;99.90
21612;DHT22;47005;52.292;13.452;2023-03-23T07:05:00;12.40;99.90
21612;DHT22;47005;52.292;13.452;2023-03-23T07:07:25;12.40;99.90
21612;DHT22;47005;52.292;13.452;2023-03-23T07:09:51;12.40;99.90
21612;DHT22;47005;52.292;13.452;2023-03-23T07:12:17;12.40;99.90
21612;DHT22;47005;52.292;13.452;2023-03-23T07:14:42;12.40;99.90
21612;DHT22;47005;52.292;13.452;2023-03-23T07:17:08;12.40;99.90
21612;DHT22;47005;52.292;13.452;2023-03-23T07:19:34;12.40;99.90
21612;DHT22;47005;52.292;13.452;2023-03-23T07:22:01;12.40;99.90
21612;DHT22;47005;52.292;13.452;2023-03-23T07:24:27;12.40;99.90
21612;DHT22;47005;52.292;13.452;2023-03-23T07:26:53;12.40;99.90
21612;DHT22;47005;52.292;13.452;2023-03-23T07:29:18;12.40;99.90
21612;DHT22;47005;52.292;13.452;2023-03-23T07:31:44;12.40;99.90
21612;DHT22;47005;52.292;13.452;2023-03-23T07:34:10;12.40;99.90
21612;DHT22;47005;52.292;13.452;2023-03-23T07:36:35;12.40;99.90
21612;DHT22;47005;52.292;13.452;2023-03-23T07:39:03;12.40;99.90
21612;DHT22;47005;52.292;13.452;2023-03-23T07:41:31;12.50;99.90
21612;DHT22;47005;52.292;13.452;2023-03-23T07:43:57;12.50;99.90
21612;DHT22;47005;52.292;13.452;2023-03-23T07:46:22;12.50;99.90
21612;DHT22;47005;52.292;13.452;2023-03-23T07:48:48;12.50;99.90
21612;DHT22;47005;52.292;13.452;2023-03-23T07:51:15;12.50;99.90
21612;DHT22;47005;52.292;13.452;2023-03-23T07:53:42;12.50;99.90
21612;DHT22;47005;52.292;13.452;2023-03-23T07:56:11;12.60;99.90
21612;DHT22;47005;52.292;13.452;2023-03-23T07:58:37;12.60;99.90
21612;DHT22;47005;52.292;13.452;2023-03-23T08:01:03;12.60;99.90
21612;DHT22;47005;52.292;13.452;2023-03-23T08:03:29;12.60;99.90
21612;DHT22;47005;52.292;13.452;2023-03-23T08:05:58;12.70;99.90
21612;DHT22;47005;52.292;13.452;2023-03-23T08:08:25;12.70;99.90
21612;DHT22;47005;52.292;13.452;2023-03-23T08:10:51;12.70;99.90
21612;DHT22;47005;52.292;13.452;2023-03-23T08:13:17;12.70;99.90
21612;DHT22;47005;52.292;13.452;2023-03-23T08:15:43;12.70;99.90
21612;DHT22;47005;52.292;13.452;2023-03-23T08:18:12;12.80;99.90
21612;DHT22;47005;52.292;13.452;2023-03-23T08:20:41;12.80;99.90
21612;DHT22;47005;52.292;13.452;2023-03-23T08:23:07;12.80;99.90
21612;DHT22;47005;52.292;13.452;2023-03-23T08:25:34;12.90;99.90
21612;DHT22;47005;52.292;13.452;2023-03-23T08:28:00;12.90;99.90
21612;DHT22;47005;52.292;13.452;2023-03-23T08:30:29;12.90;99.90
21612;DHT22;47005;52.292;13.452;2023-03-23T08:32:59;13.00;99.90
21612;DHT22;47005;52.292;13.452;2023-03-23T08:35:25;13.00;99.90
21612;DHT22;47005;52.292;13.452;2023-03-23T08:37:51;13.00;99.90
21612;DHT22;47005;52.292;13.452;2023-03-23T08:40:19;13.00;99.90
21612;DHT22;47005;52.292;13.452;2023-03-23T08:42:46;13.10;99.90
21612;DHT22;47005;52.292;13.452;2023-03-23T08:45:15;13.00;99.90
21612;DHT22;47005;52.292;13.452;2023-03-23T08:47:42;13.10;99.90
21612;DHT22;47005;52.292;13.452;2023-03-23T08:50:14;13.10;99.90
21612;DHT22;47005;52.292;13.452;2023-03-23T08:52:40;13.10;99.90
21612;DHT22;47005;52.292;13.452;2023-03-23T08:55:06;13.10;99.90
21612;DHT22;47005;52.292;13.452;2023-03-23T08:57:34;13.10;99.90
21612;DHT22;47005;52.292;13.452;2023-03-23T09:00:05;13.10;99.90
21612;DHT22;47005;52.292;13.452;2023-03-23T09:02:40;13.10;99.90
21612;DHT22;47005;52.292;13.452;2023-03-23T09:05:06;13.10;99.90
21612;DHT22;47005;52.292;13.452;2023-03-23T09:07:32;13.10;99.90
21612;DHT22;47005;52.292;13.452;2023-03-23T09:09:58;13.10;99.90
21612;DHT22;47005;52.292;13.452;2023-03-23T09:12:24;13.20;99.90
21612;DHT22;47005;52.292;13.452;2023-03-23T09:14:50;13.20;99.90
21612;DHT22;47005;52.292;13.452;2023-03-23T09:17:15;13.30;99.90
21612;DHT22;47005;52.292;13.452;2023-03-23T09:19:41;13.30;99.90
21612;DHT22;47005;52.292;13.452;2023-03-23T09:22:07;13.40;99.90
21612;DHT22;47005;52.292;13.452;2023-03-23T09:24:33;13.40;99.90
21612;DHT22;47005;52.292;13.452;2023-03-23T09:26:59;13.50;99.90
21612;DHT22;47005;52.292;13.452;2023-03-23T09:29:26;13.50;99.90
21612;DHT22;47005;52.292;13.452;2023-03-23T09:31:53;13.60;99.90
21612;DHT22;47005;52.292;13.452;2023-03-23T09:34:19;13.60;99.90
21612;DHT22;47005;52.292;13.452;2023-03-23T09:36:44;13.60;99.90
21612;DHT22;47005;52.292;13.452;2023-03-23T09:39:11;13.60;99.90
21612;DHT22;47005;52.292;13.452;2023-03-23T09:49:34;13.80;99.90
21612;DHT22;47005;52.292;13.452;2023-03-23T09:52:11;13.80;99.90
21612;DHT22;47005;52.292;13.452;2023-03-23T09:54:42;13.80;99.90
21612;DHT22;47005;52.292;13.452;2023-03-23T10:00:17;13.90;99.90
21612;DHT22;47005;52.292;13.452;2023-03-23T10:03:12;13.90;99.90
21612;DHT22;47005;52.292;13.452;2023-03-23T10:05:48;14.00;99.90
21612;DHT22;47005;52.292;13.452;2023-03-23T10:08:20;14.00;99.90
21612;DHT22;47005;52.292;13.452;2023-03-23T10:11:10;14.10;99.90
21612;DHT22;47005;52.292;13.452;2023-03-23T10:16:09;14.10;99.90
21612;DHT22;47005;52.292;13.452;2023-03-23T10:18:47;14.10;99.90
21612;DHT22;47005;52.292;13.452;2023-03-23T10:21:18;14.10;99.90
21612;DHT22;47005;52.292;13.452;2023-03-23T10:32:03;14.30;99.90
21612;DHT22;47005;52.292;13.452;2023-03-23T10:35:04;14.30;99.90
21612;DHT22;47005;52.292;13.452;2023-03-23T10:37:39;14.30;99.90
21612;DHT22;47005;52.292;13.452;2023-03-23T10:40:14;14.30;99.90
21612;DHT22;47005;52.292;13.452;2023-03-23T10:42:40;14.40;99.90
21612;DHT22;47005;52.292;13.452;2023-03-23T10:45:27;14.40;99.90
21612;DHT22;47005;52.292;13.452;2023-03-23T10:48:22;14.40;99.90
21612;DHT22;47005;52.292;13.452;2023-03-23T10:50:52;14.40;99.90
21612;DHT22;47005;52.292;13.452;2023-03-23T10:53:32;14.40;99.90
21612;DHT22;47005;52.292;13.452;2023-03-23T10:55:59;14.40;99.90
21612;DHT22;47005;52.292;13.452;2023-03-23T10:58:29;14.40;99.90
21612;DHT22;47005;52.292;13.452;2023-03-23T11:00:55;14.50;99.90
21612;DHT22;47005;52.292;13.452;2023-03-23T11:06:02;14.50;99.90
21612;DHT22;47005;52.292;13.452;2023-03-23T11:08:47;14.50;99.90
21612;DHT22;47005;52.292;13.452;2023-03-23T11:13:46;14.60;99.90
21612;DHT22;47005;52.292;13.452;2023-03-23T11:16:33;14.60;99.90
21612;DHT22;47005;52.292;13.452;2023-03-23T11:19:13;14.60;99.90
21612;DHT22;47005;52.292;13.452;2023-03-23T11:21:40;14.70;99.90
21612;DHT22;47005;52.292;13.452;2023-03-23T11:24:08;14.70;99.70
21612;DHT22;47005;52.292;13.452;2023-03-23T11:26:35;14.70;99.90
21612;DHT22;47005;52.292;13.452;2023-03-23T11:34:13;14.70;99.60
21612;DHT22;47005;52.292;13.452;2023-03-23T11:36:43;14.70;98.90
21612;DHT22;47005;52.292;13.452;2023-03-23T11:39:28;14.80;99.50
21612;DHT22;47005;52.292;13.452;2023-03-23T11:41:57;14.80;98.80
21612;DHT22;47005;52.292;13.452;2023-03-23T11:44:24;14.80;99.00
21612;DHT22;47005;52.292;13.452;2023-03-23T11:50:05;14.90;98.40
21612;DHT22;47005;52.292;13.452;2023-03-23T11:57:38;15.00;98.90
21612;DHT22;47005;52.292;13.452;2023-03-23T12:00:18;15.10;98.90
21612;DHT22;47005;52.292;13.452;2023-03-23T12:03:05;15.10;98.60
21612;DHT22;47005;52.292;13.452;2023-03-23T12:18:45;15.30;97.20
21612;DHT22;47005;52.292;13.452;2023-03-23T12:24:06;15.40;97.80
21612;DHT22;47005;52.292;13.452;2023-03-23T12:26:53;15.40;96.80
21612;DHT22;47005;52.292;13.452;2023-03-23T12:34:58;15.60;97.50
21612;DHT22;47005;52.292;13.452;2023-03-23T12:41:05;15.70;96.20
21612;DHT22;47005;52.292;13.452;2023-03-23T12:52:09;15.80;96.20
21612;DHT22;47005;52.292;13.452;2023-03-23T13:00:18;15.90;95.20
21612;DHT22;47005;52.292;13.452;2023-03-23T13:10:45;15.90;95.10
21612;DHT22;47005;52.292;13.452;2023-03-23T13:13:20;15.90;94.50
21612;DHT22;47005;52.292;13.452;2023-03-23T13:16:26;15.90;94.30
21612;DHT22;47005;52.292;13.452;2023-03-23T13:19:01;15.90;94.00
21612;DHT22;47005;52.292;13.452;2023-03-23T13:24:24;16.00;94.00
21612;DHT22;47005;52.292;13.452;2023-03-23T13:26:51;16.00;93.70
21612;DHT22;47005;52.292;13.452;2023-03-23T13:29:19;16.00;94.10
21612;DHT22;47005;52.292;13.452;2023-03-23T13:31:46;16.10;92.90
21612;DHT22;47005;52.292;13.452;2023-03-23T13:34:24;16.10;92.80
21612;DHT22;47005;52.292;13.452;2023-03-23T13:37:10;16.20;92.60
21612;DHT22;47005;52.292;13.452;2023-03-23T13:50:12;16.60;92.80
21612;DHT22;47005;52.292;13.452;2023-03-23T13:52:53;16.60;92.30
21612;DHT22;47005;52.292;13.452;2023-03-23T13:55:39;16.70;92.00
21612;DHT22;47005;52.292;13.452;2023-03-23T14:03:11;16.80;92.60
21612;DHT22;47005;52.292;13.452;2023-03-23T14:05:50;16.90;92.60
21612;DHT22;47005;52.292;13.452;2023-03-23T14:08:24;16.90;92.30
21612;DHT22;47005;52.292;13.452;2023-03-23T14:11:00;16.90;92.60
21612;DHT22;47005;52.292;13.452;2023-03-23T14:13:45;16.90;92.10
21612;DHT22;47005;52.292;13.452;2023-03-23T14:16:22;16.90;91.80
21612;DHT22;47005;52.292;13.452;2023-03-23T14:18:54;16.90;91.90
21612;DHT22;47005;52.292;13.452;2023-03-23T14:24:03;17.10;91.20
21612;DHT22;47005;52.292;13.452;2023-03-23T14:26:29;17.30;90.50
21612;DHT22;47005;52.292;13.452;2023-03-23T14:28:59;17.50;89.80
21612;DHT22;47005;52.292;13.452;2023-03-23T14:31:26;17.50;88.40
21612;DHT22;47005;52.292;13.452;2023-03-23T14:33:55;17.50;88.80
21612;DHT22;47005;52.292;13.452;2023-03-23T14:36:27;17.40;88.50
21612;DHT22;47005;52.292;13.452;2023-03-23T14:39:04;17.40;89.50
21612;DHT22;47005;52.292;13.452;2023-03-23T14:41:31;17.30;89.60
21612;DHT22;47005;52.292;13.452;2023-03-23T14:44:00;17.30;90.00
21612;DHT22;47005;52.292;13.452;2023-03-23T14:46:27;17.20;89.50
21612;DHT22;47005;52.292;13.452;2023-03-23T14:48:54;17.10;90.10
21612;DHT22;47005;52.292;13.452;2023-03-23T14:51:21;17.10;90.10
21612;DHT22;47005;52.292;13.452;2023-03-23T14:53:47;17.00;90.00
21612;DHT22;47005;52.292;13.452;2023-03-23T14:56:19;16.90;90.30
21612;DHT22;47005;52.292;13.452;2023-03-23T14:58:47;16.90;90.00
21612;DHT22;47005;52.292;13.452;2023-03-23T15:01:36;16.80;90.60
21612;DHT22;47005;52.292;13.452;2023-03-23T15:04:09;16.80;90.60
21612;DHT22;47005;52.292;13.452;2023-03-23T15:06:37;16.70;90.70
21612;DHT22;47005;52.292;13.452;2023-03-23T15:09:09;16.70;90.90
21612;DHT22;47005;52.292;13.452;2023-03-23T15:11:38;16.60;90.50
21612;DHT22;47005;52.292;13.452;2023-03-23T15:14:33;16.60;91.00
21612;DHT22;47005;52.292;13.452;2023-03-23T15:17:02;16.60;90.40
21612;DHT22;47005;52.292;13.452;2023-03-23T15:19:28;16.50;90.00
21612;DHT22;47005;52.292;13.452;2023-03-23T15:22:05;16.50;89.50
21612;DHT22;47005;52.292;13.452;2023-03-23T15:24:37;16.40;90.00
21612;DHT22;47005;52.292;13.452;2023-03-23T15:29:31;16.40;90.20
21612;DHT22;47005;52.292;13.452;2023-03-23T15:31:57;16.40;90.20
21612;DHT22;47005;52.292;13.452;2023-03-23T15:34:36;16.40;90.30
21612;DHT22;47005;52.292;13.452;2023-03-23T15:37:31;16.40;90.40
21612;DHT22;47005;52.292;13.452;2023-03-23T15:39:59;16.50;90.90
21612;DHT22;47005;52.292;13.452;2023-03-23T15:42:30;16.70;90.40
21612;DHT22;47005;52.292;13.452;2023-03-23T15:45:27;17.00;90.30
21612;DHT22;47005;52.292;13.452;2023-03-23T15:47:53;17.20;90.10
21612;DHT22;47005;52.292;13.452;2023-03-23T15:52:51;17.40;87.10
21612;DHT22;47005;52.292;13.452;2023-03-23T15:55:27;17.50;87.60
21612;DHT22;47005;52.292;13.452;2023-03-23T15:57:56;17.50;87.00
21612;DHT22;47005;52.292;13.452;2023-03-23T16:00:24;17.50;87.60
21612;DHT22;47005;52.292;13.452;2023-03-23T16:02:55;17.50;85.70
21612;DHT22;47005;52.292;13.452;2023-03-23T16:05:22;17.50;86.40
21612;DHT22;47005;52.292;13.452;2023-03-23T16:07:49;17.50;86.00
21612;DHT22;47005;52.292;13.452;2023-03-23T16:10:17;17.50;85.70
21612;DHT22;47005;52.292;13.452;2023-03-23T16:12:44;17.40;86.40
21612;DHT22;47005;52.292;13.452;2023-03-23T16:15:11;17.40;85.90
21612;DHT22;47005;52.292;13.452;2023-03-23T16:17:37;17.30;86.20
21612;DHT22;47005;52.292;13.452;2023-03-23T16:20:12;17.30;87.10
21612;DHT22;47005;52.292;13.452;2023-03-23T16:22:38;17.20;87.50
21612;DHT22;47005;52.292;13.452;2023-03-23T16:25:04;17.20;87.00
21612;DHT22;47005;52.292;13.452;2023-03-23T16:27:31;17.10;87.20
21612;DHT22;47005;52.292;13.452;2023-03-23T16:29:57;16.90;87.50
21612;DHT22;47005;52.292;13.452;2023-03-23T16:32:25;16.80;87.50
21612;DHT22;47005;52.292;13.452;2023-03-23T16:34:50;16.80;87.90
21612;DHT22;47005;52.292;13.452;2023-03-23T16:37:16;16.70;88.50
21612;DHT22;47005;52.292;13.452;2023-03-23T16:39:42;16.70;88.60
21612;DHT22;47005;52.292;13.452;2023-03-23T16:42:08;16.60;89.00
21612;DHT22;47005;52.292;13.452;2023-03-23T16:44:33;16.60;88.90
21612;DHT22;47005;52.292;13.452;2023-03-23T16:46:59;16.50;88.80
21612;DHT22;47005;52.292;13.452;2023-03-23T16:49:25;16.40;89.00
21612;DHT22;47005;52.292;13.452;2023-03-23T16:51:50;16.40;89.50
21612;DHT22;47005;52.292;13.452;2023-03-23T16:54:16;16.30;89.50
21612;DHT22;47005;52.292;13.452;2023-03-23T16:56:42;16.30;89.80
21612;DHT22;47005;52.292;13.452;2023-03-23T16:59:14;16.30;90.00
21612;DHT22;47005;52.292;13.452;2023-03-23T17:01:39;16.20;90.00
21612;DHT22;47005;52.292;13.452;2023-03-23T17:04:07;16.20;90.20
21612;DHT22;47005;52.292;13.452;2023-03-23T17:06:33;16.20;90.20
21612;DHT22;47005;52.292;13.452;2023-03-23T17:08:58;16.10;90.40
21612;DHT22;47005;52.292;13.452;2023-03-23T17:11:24;16.00;90.30
21612;DHT22;47005;52.292;13.452;2023-03-23T17:13:49;16.00;90.50
21612;DHT22;47005;52.292;13.452;2023-03-23T17:16:15;16.00;90.50
21612;DHT22;47005;52.292;13.452;2023-03-23T17:18:41;15.90;90.60
21612;DHT22;47005;52.292;13.452;2023-03-23T17:21:06;15.90;90.70
21612;DHT22;47005;52.292;13.452;2023-03-23T17:23:32;15.90;90.80
21612;DHT22;47005;52.292;13.452;2023-03-23T17:25:58;15.80;90.90
21612;DHT22;47005;52.292;13.452;2023-03-23T17:28:24;15.90;90.90
21612;DHT22;47005;52.292;13.452;2023-03-23T17:30:50;15.80;91.00
21612;DHT22;47005;52.292;13.452;2023-03-23T17:33:16;15.80;91.00
21612;DHT22;47005;52.292;13.452;2023-03-23T17:35:45;15.80;91.10
21612;DHT22;47005;52.292;13.452;2023-03-23T17:38:11;15.70;91.20
21612;DHT22;47005;52.292;13.452;2023-03-23T17:40:36;15.70;91.20
21612;DHT22;47005;52.292;13.452;2023-03-23T17:43:02;15.60;91.30
21612;DHT22;47005;52.292;13.452;2023-03-23T17:45:28;15.60;91.50